Time;durP1;ratioP1;P1;durP2;ratioP2;P2;SDS_P1;SDS_P2;PMS_P1;PMS_P2;Temp;Humidity;BMP_temperature;BMP_pressure;BME280_temperature;BME280_humidity;BME280_pressure;Samples;Min_cycle;Max_cycle;Signal;HPM_P1;HPM_P2
2023/05/01 00:00:08;;;;;;;3.37;2.83;;;;;;;;;;5048767;28;20188;-54
2023/05/01 00:02:36;;;;;;;4.60;2.73;;;;;;;;;;5048373;28;20196;-54
2023/05/01 00:05:03;;;;;;;3.03;2.73;;;;;;;;;;5042628;28;20217;-54
2023/05/01 00:07:29;;;;;;;4.10;2.57;;;;;;;;;;5048482;28;20661;-54
2023/05/01 00:09:58;;;;;;;3.07;2.50;;;;;;;;;;5045292;28;20196;-53
2023/05/01 00:12:25;;;;;;;2.70;2.50;;;;;;;;;;5047543;28;20562;-53
2023/05/01 00:14:51;;;;;;;3.00;2.80;;;;;;;;;;5048031;28;20193;-53
2023/05/01 00:17:17;;;;;;;5.33;2.97;;;;;;;;;;5049908;28;20181;-53
2023/05/01 00:19:43;;;;;;;3.83;3.03;;;;;;;;;;5047219;28;20427;-53
2023/05/01 00:22:09;;;;;;;2.97;2.70;;;;;;;;;;5045574;28;20206;-53
2023/05/01 00:24:35;;;;;;;3.03;2.80;;;;;;;;;;5054412;28;20231;-54
2023/05/01 00:27:02;;;;;;;2.90;2.57;;;;;;;;;;5068143;28;20627;-53
2023/05/01 00:29:28;;;;;;;4.17;2.57;;;;;;;;;;5068130;28;20195;-53
2023/05/01 00:31:54;;;;;;;4.20;3.10;;;;;;;;;;5068977;28;20222;-53
2023/05/01 00:34:21;;;;;;;2.80;2.57;;;;;;;;;;5067820;28;20271;-53
2023/05/01 00:36:48;;;;;;;3.30;3.00;;;;;;;;;;5061753;28;20567;-53
2023/05/01 00:39:14;;;;;;;2.90;2.70;;;;;;;;;;5068870;28;20208;-52
2023/05/01 00:41:40;;;;;;;3.20;2.90;;;;;;;;;;5062392;28;20180;-53
2023/05/01 00:44:06;;;;;;;2.83;2.63;;;;;;;;;;5066340;28;20600;-54
2023/05/01 00:46:33;;;;;;;4.20;3.07;;;;;;;;;;5061224;28;20188;-53
2023/05/01 00:49:00;;;;;;;3.17;2.87;;;;;;;;;;5066795;28;20165;-53
2023/05/01 00:51:31;;;;;;;3.37;2.97;;;;;;;;;;5064801;28;20175;-53
2023/05/01 00:54:00;;;;;;;3.13;2.83;;;;;;;;;;5072099;28;20218;-53
2023/05/01 00:56:26;;;;;;;4.33;3.20;;;;;;;;;;5063825;28;20188;-53
2023/05/01 00:58:53;;;;;;;2.40;2.20;;;;;;;;;;5063371;28;20185;-53
2023/05/01 01:01:20;;;;;;;3.30;2.97;;;;;;;;;;5067377;28;20235;-53
2023/05/01 01:03:47;;;;;;;3.43;3.13;;;;;;;;;;5062578;28;20487;-53
2023/05/01 01:06:19;;;;;;;2.50;2.30;;;;;;;;;;5064424;28;20202;-53
2023/05/01 01:08:49;;;;;;;2.90;2.70;;;;;;;;;;5066258;28;20706;-53
2023/05/01 01:11:20;;;;;;;3.97;3.03;;;;;;;;;;5066312;28;20201;-54
2023/05/01 01:13:49;;;;;;;4.30;2.80;;;;;;;;;;5067531;28;20242;-54
2023/05/01 01:16:18;;;;;;;3.30;3.00;;;;;;;;;;5066810;28;20550;-53
2023/05/01 01:19:03;;;;;;;3.20;2.77;;;;;;;;;;5062835;28;20646;-54
2023/05/01 01:21:36;;;;;;;3.40;3.10;;;;;;;;;;5064522;28;20180;-54
2023/05/01 01:24:22;;;;;;;3.50;3.17;;;;;;;;;;5067840;28;20241;-53
2023/05/01 01:26:54;;;;;;;3.40;2.57;;;;;;;;;;5062119;28;20230;-53
2023/05/01 01:29:26;;;;;;;3.70;2.87;;;;;;;;;;5060400;28;20536;-54
2023/05/01 01:32:11;;;;;;;3.40;3.10;;;;;;;;;;5067672;28;20177;-54
2023/05/01 01:34:44;;;;;;;3.00;2.80;;;;;;;;;;5064628;28;20182;-54
2023/05/01 01:37:21;;;;;;;2.83;2.63;;;;;;;;;;5067411;28;20660;-54
2023/05/01 01:40:06;;;;;;;3.23;2.93;;;;;;;;;;5066348;28;20544;-53
2023/05/01 01:42:42;;;;;;;3.37;3.07;;;;;;;;;;5066449;28;20599;-54
2023/05/01 01:45:11;;;;;;;2.83;2.57;;;;;;;;;;5064836;28;20210;-54
2023/05/01 01:47:40;;;;;;;3.00;2.43;;;;;;;;;;5063134;28;20170;-54
2023/05/01 01:50:07;;;;;;;3.07;2.70;;;;;;;;;;5065352;28;20173;-54
2023/05/01 01:52:35;;;;;;;3.27;2.60;;;;;;;;;;5066730;28;20208;-54
2023/05/01 01:55:09;;;;;;;3.83;2.80;;;;;;;;;;5060836;28;20528;-54
2023/05/01 01:57:38;;;;;;;5.83;3.20;;;;;;;;;;5066165;28;20208;-54
2023/05/01 02:00:07;;;;;;;3.57;2.90;;;;;;;;;;5064696;28;20551;-54
2023/05/01 02:02:36;;;;;;;4.47;2.60;;;;;;;;;;5063886;28;20183;-54
2023/05/01 02:05:03;;;;;;;2.83;2.47;;;;;;;;;;5070239;28;20206;-54
2023/05/01 02:07:30;;;;;;;3.90;2.90;;;;;;;;;;5071786;28;20653;-54
2023/05/01 02:09:56;;;;;;;4.37;2.80;;;;;;;;;;5075449;28;20184;-54
2023/05/01 02:12:23;;;;;;;3.00;2.70;;;;;;;;;;5066944;28;20215;-54
2023/05/01 02:14:50;;;;;;;3.83;2.95;;;;;;;;;;5070760;28;20422;-54
2023/05/01 02:17:16;;;;;;;3.00;2.70;;;;;;;;;;5071444;28;20195;-54
2023/05/01 02:19:44;;;;;;;3.03;2.70;;;;;;;;;;5069968;28;20732;-55
2023/05/01 02:22:11;;;;;;;3.40;2.97;;;;;;;;;;5071043;28;20595;-54
2023/05/01 02:24:38;;;;;;;2.90;2.70;;;;;;;;;;5068533;28;20228;-54
2023/05/01 02:27:16;;;;;;;6.27;2.90;;;;;;;;;;5071456;28;20242;-54
2023/05/01 02:29:43;;;;;;;3.33;2.90;;;;;;;;;;5069084;28;20176;-55
2023/05/01 02:32:09;;;;;;;3.10;2.70;;;;;;;;;;5066823;28;20284;-54
2023/05/01 02:34:35;;;;;;;3.50;3.13;;;;;;;;;;5066136;28;20672;-55
2023/05/01 02:37:02;;;;;;;4.43;2.70;;;;;;;;;;5067217;28;20548;-54
2023/05/01 02:39:28;;;;;;;3.53;2.57;;;;;;;;;;5075756;28;20184;-55
2023/05/01 02:41:55;;;;;;;3.20;2.90;;;;;;;;;;5068406;28;20736;-55
2023/05/01 02:44:22;;;;;;;4.97;2.87;;;;;;;;;;5067731;28;20781;-55
2023/05/01 02:46:50;;;;;;;3.13;2.70;;;;;;;;;;5063774;28;20261;-55
2023/05/01 02:49:17;;;;;;;2.63;2.40;;;;;;;;;;5065106;28;20181;-55
2023/05/01 02:51:45;;;;;;;2.53;2.30;;;;;;;;;;5066232;28;20178;-55
2023/05/01 02:54:11;;;;;;;2.67;2.47;;;;;;;;;;5070405;28;20559;-55
2023/05/01 02:56:37;;;;;;;4.00;2.97;;;;;;;;;;5070723;28;20182;-55
2023/05/01 02:59:03;;;;;;;3.13;2.83;;;;;;;;;;5069719;28;20211;-55
2023/05/01 03:01:30;;;;;;;3.13;2.83;;;;;;;;;;5071053;28;20189;-54
2023/05/01 03:03:57;;;;;;;3.10;2.80;;;;;;;;;;5068917;28;20204;-55
2023/05/01 03:06:23;;;;;;;2.77;2.57;;;;;;;;;;5070913;28;20189;-55
2023/05/01 03:08:49;;;;;;;2.70;2.50;;;;;;;;;;5065299;28;20538;-54
2023/05/01 03:11:15;;;;;;;2.90;2.37;;;;;;;;;;5069050;28;20212;-55
2023/05/01 03:13:41;;;;;;;4.03;2.60;;;;;;;;;;5068182;28;20905;-55
2023/05/01 03:16:07;;;;;;;3.60;3.30;;;;;;;;;;5069475;28;20168;-55
2023/05/01 03:18:33;;;;;;;2.73;2.50;;;;;;;;;;5067566;28;20573;-55
2023/05/01 03:20:59;;;;;;;3.77;2.93;;;;;;;;;;5070071;28;20235;-55
2023/05/01 03:23:26;;;;;;;2.63;2.43;;;;;;;;;;5070193;28;20560;-55
2023/05/01 03:25:53;;;;;;;2.87;2.67;;;;;;;;;;5068506;28;20563;-55
2023/05/01 03:28:22;;;;;;;2.80;2.50;;;;;;;;;;5068879;28;20725;-55
2023/05/01 03:30:49;;;;;;;2.83;2.50;;;;;;;;;;5066527;28;20527;-55
2023/05/01 03:33:15;;;;;;;4.33;4.03;;;;;;;;;;5068604;28;20178;-54
2023/05/01 03:35:41;;;;;;;3.30;2.70;;;;;;;;;;5067971;28;20176;-55
2023/05/01 03:38:07;;;;;;;3.27;2.40;;;;;;;;;;5070160;28;20184;-55
2023/05/01 03:40:33;;;;;;;3.97;2.77;;;;;;;;;;5069439;28;20519;-55
2023/05/01 03:42:59;;;;;;;2.80;2.50;;;;;;;;;;5069127;28;20380;-55
2023/05/01 03:45:26;;;;;;;3.90;3.33;;;;;;;;;;5070653;28;20212;-55
2023/05/01 03:47:52;;;;;;;3.33;2.90;;;;;;;;;;5068687;28;20616;-55
2023/05/01 03:50:18;;;;;;;3.60;3.37;;;;;;;;;;5068475;28;20211;-55
2023/05/01 03:52:44;;;;;;;8.07;2.70;;;;;;;;;;5070639;28;20176;-54
2023/05/01 03:55:10;;;;;;;3.03;2.77;;;;;;;;;;5066850;28;20184;-55
2023/05/01 03:57:36;;;;;;;2.70;2.50;;;;;;;;;;5067731;28;20196;-55
2023/05/01 04:00:04;;;;;;;2.90;2.60;;;;;;;;;;5064868;28;20184;-55
2023/05/01 04:02:30;;;;;;;3.63;2.93;;;;;;;;;;5067757;28;20639;-55
2023/05/01 04:04:56;;;;;;;3.10;2.80;;;;;;;;;;5065878;28;20201;-54
2023/05/01 04:07:22;;;;;;;3.80;3.07;;;;;;;;;;5066479;28;20194;-54
2023/05/01 04:09:49;;;;;;;2.70;2.50;;;;;;;;;;5067213;28;20187;-54
2023/05/01 04:12:15;;;;;;;3.40;2.60;;;;;;;;;;5067928;28;20372;-54
2023/05/01 04:14:43;;;;;;;3.00;2.77;;;;;;;;;;5063273;28;20279;-54
2023/05/01 04:17:10;;;;;;;2.80;2.60;;;;;;;;;;5050786;28;20178;-56
2023/05/01 04:19:36;;;;;;;4.27;2.67;;;;;;;;;;5067893;28;20642;-54
2023/05/01 04:22:04;;;;;;;3.70;3.40;;;;;;;;;;5066786;28;20642;-60
2023/05/01 04:24:30;;;;;;;3.40;2.80;;;;;;;;;;5068253;28;20212;-54
2023/05/01 04:26:57;;;;;;;3.63;3.10;;;;;;;;;;5067484;28;20172;-53
2023/05/01 04:29:24;;;;;;;5.53;3.83;;;;;;;;;;5048514;28;20688;-54
2023/05/01 04:31:50;;;;;;;2.90;2.70;;;;;;;;;;5066892;28;20166;-55
2023/05/01 04:34:18;;;;;;;2.60;2.40;;;;;;;;;;5045925;28;20188;-54
2023/05/01 04:36:45;;;;;;;2.93;2.73;;;;;;;;;;5068698;28;20307;-54
2023/05/01 04:39:11;;;;;;;3.00;2.67;;;;;;;;;;5067350;28;20230;-53
2023/05/01 04:41:37;;;;;;;8.40;3.10;;;;;;;;;;5068394;28;20295;-54
2023/05/01 04:44:03;;;;;;;2.57;2.37;;;;;;;;;;5067269;28;20868;-54
2023/05/01 04:46:29;;;;;;;3.27;2.57;;;;;;;;;;5064482;28;20175;-54
2023/05/01 04:48:55;;;;;;;3.37;2.50;;;;;;;;;;5064476;28;20183;-53
2023/05/01 04:51:22;;;;;;;3.10;2.80;;;;;;;;;;5066444;28;20178;-54
2023/05/01 04:53:48;;;;;;;3.63;2.80;;;;;;;;;;5068286;28;20561;-54
2023/05/01 04:56:14;;;;;;;3.40;2.27;;;;;;;;;;5063670;28;20261;-54
2023/05/01 04:58:41;;;;;;;2.53;2.33;;;;;;;;;;5061619;28;20189;-53
2023/05/01 05:01:07;;;;;;;3.13;2.43;;;;;;;;;;5066473;28;20187;-53
2023/05/01 05:03:33;;;;;;;2.40;2.20;;;;;;;;;;5061953;28;20656;-54
2023/05/01 05:05:59;;;;;;;2.80;2.60;;;;;;;;;;5065951;28;20196;-54
2023/05/01 05:08:25;;;;;;;3.03;2.77;;;;;;;;;;5065911;28;20173;-54
2023/05/01 05:10:56;;;;;;;2.83;2.60;;;;;;;;;;5067635;28;20181;-54
2023/05/01 05:13:22;;;;;;;3.00;2.33;;;;;;;;;;5048112;28;20177;-58
2023/05/01 05:15:48;;;;;;;2.50;2.30;;;;;;;;;;5067741;28;20208;-54
2023/05/01 05:18:14;;;;;;;2.43;2.23;;;;;;;;;;5065591;28;20177;-54
2023/05/01 05:20:40;;;;;;;2.40;2.20;;;;;;;;;;5067009;28;20180;-55
2023/05/01 05:23:06;;;;;;;3.47;2.50;;;;;;;;;;5068876;28;20223;-54
2023/05/01 05:25:32;;;;;;;3.30;2.53;;;;;;;;;;5063758;28;20220;-54
2023/05/01 05:27:59;;;;;;;3.50;2.70;;;;;;;;;;5066717;28;20177;-55
2023/05/01 05:30:26;;;;;;;3.03;2.77;;;;;;;;;;5056568;28;20215;-54
2023/05/01 05:32:52;;;;;;;2.50;2.30;;;;;;;;;;5062065;28;20185;-54
2023/05/01 05:35:18;;;;;;;2.70;2.47;;;;;;;;;;5057098;28;20184;-55
2023/05/01 05:37:44;;;;;;;2.40;2.20;;;;;;;;;;5051200;28;20188;-55
2023/05/01 05:40:10;;;;;;;2.50;2.30;;;;;;;;;;5053194;28;20643;-55
2023/05/01 05:42:36;;;;;;;3.43;2.50;;;;;;;;;;5054958;28;20173;-55
2023/05/01 05:45:02;;;;;;;3.73;2.50;;;;;;;;;;5058487;28;20211;-54
2023/05/01 05:47:28;;;;;;;3.40;2.47;;;;;;;;;;5066971;28;20191;-55
2023/05/01 05:49:54;;;;;;;3.23;2.37;;;;;;;;;;5063534;28;20179;-55
2023/05/01 05:52:21;;;;;;;2.67;2.47;;;;;;;;;;5065678;28;20180;-58
2023/05/01 05:54:48;;;;;;;2.27;2.07;;;;;;;;;;5068146;28;20188;-55
2023/05/01 05:57:14;;;;;;;2.53;2.20;;;;;;;;;;5066606;28;20187;-54
2023/05/01 05:59:40;;;;;;;3.30;2.50;;;;;;;;;;5064673;28;20208;-55
2023/05/01 06:02:07;;;;;;;2.63;2.40;;;;;;;;;;5066584;28;20181;-55
2023/05/01 06:04:33;;;;;;;3.13;2.40;;;;;;;;;;5066861;28;20668;-55
2023/05/01 06:06:59;;;;;;;3.40;2.53;;;;;;;;;;5062156;28;20637;-55
2023/05/01 06:09:25;;;;;;;2.40;2.20;;;;;;;;;;5063775;28;20301;-55
2023/05/01 06:11:51;;;;;;;2.73;2.50;;;;;;;;;;5066124;28;20239;-55
2023/05/01 06:14:17;;;;;;;2.50;2.30;;;;;;;;;;5067174;28;20176;-55
2023/05/01 06:16:44;;;;;;;3.10;2.30;;;;;;;;;;5066971;28;20230;-55
2023/05/01 06:19:11;;;;;;;4.50;2.40;;;;;;;;;;5062933;28;20268;-55
2023/05/01 06:21:37;;;;;;;2.73;2.53;;;;;;;;;;5065838;28;20181;-55
2023/05/01 06:24:03;;;;;;;2.60;2.40;;;;;;;;;;5067952;28;20759;-56
2023/05/01 06:26:30;;;;;;;2.60;2.40;;;;;;;;;;5066606;28;20215;-55
2023/05/01 06:28:56;;;;;;;2.83;2.30;;;;;;;;;;5062972;28;20172;-55
2023/05/01 06:31:22;;;;;;;2.97;2.50;;;;;;;;;;5067656;28;20676;-55
2023/05/01 06:33:48;;;;;;;2.30;2.17;;;;;;;;;;5065013;28;20272;-56
2023/05/01 06:36:15;;;;;;;2.07;1.97;;;;;;;;;;5045517;28;20291;-55
2023/05/01 06:38:47;;;;;;;2.37;2.17;;;;;;;;;;5066404;28;20271;-55
2023/05/01 06:41:13;;;;;;;2.43;2.23;;;;;;;;;;5067582;28;20180;-56
2023/05/01 06:43:39;;;;;;;2.63;2.30;;;;;;;;;;5064604;28;20216;-55
2023/05/01 06:46:05;;;;;;;2.63;2.43;;;;;;;;;;5061906;28;20204;-55
2023/05/01 06:48:31;;;;;;;2.27;2.07;;;;;;;;;;5066984;28;20725;-55
2023/05/01 06:50:57;;;;;;;2.33;2.13;;;;;;;;;;5069406;28;20168;-55
2023/05/01 06:53:23;;;;;;;2.60;2.40;;;;;;;;;;5068881;28;20200;-55
2023/05/01 06:55:49;;;;;;;2.70;2.50;;;;;;;;;;5069432;28;20180;-58
2023/05/01 06:58:16;;;;;;;2.77;2.13;;;;;;;;;;5068149;28;20230;-55
2023/05/01 07:00:42;;;;;;;2.70;2.50;;;;;;;;;;5068721;28;20526;-55
2023/05/01 07:03:08;;;;;;;2.93;2.63;;;;;;;;;;5066985;28;20172;-55
2023/05/01 07:05:34;;;;;;;2.87;2.47;;;;;;;;;;5071094;28;20624;-55
2023/05/01 07:08:01;;;;;;;3.27;2.53;;;;;;;;;;5068575;28;21364;-55
2023/05/01 07:10:29;;;;;;;2.80;2.20;;;;;;;;;;5070851;28;20181;-56
2023/05/01 07:12:56;;;;;;;2.40;2.23;;;;;;;;;;5069059;28;20672;-55
2023/05/01 07:15:22;;;;;;;3.47;3.17;;;;;;;;;;5067830;28;20184;-56
2023/05/01 07:17:51;;;;;;;2.30;2.10;;;;;;;;;;5067598;28;20197;-55
2023/05/01 07:20:17;;;;;;;3.47;2.10;;;;;;;;;;5068823;28;20192;-56
2023/05/01 07:22:44;;;;;;;2.67;2.47;;;;;;;;;;5064992;28;20192;-57
2023/05/01 07:25:10;;;;;;;3.30;2.07;;;;;;;;;;5063986;28;20256;-55
2023/05/01 07:27:36;;;;;;;2.40;2.20;;;;;;;;;;5067595;28;20684;-55
2023/05/01 07:30:04;;;;;;;3.03;2.43;;;;;;;;;;5059995;28;20271;-56
2023/05/01 07:32:31;;;;;;;2.77;2.57;;;;;;;;;;5062941;28;20172;-55
2023/05/01 07:34:58;;;;;;;4.20;2.50;;;;;;;;;;5064890;28;20198;-56
2023/05/01 07:37:25;;;;;;;2.97;2.17;;;;;;;;;;5068694;28;20193;-55
2023/05/01 07:39:52;;;;;;;3.13;2.63;;;;;;;;;;5065780;28;20537;-56
2023/05/01 07:42:18;;;;;;;2.20;2.00;;;;;;;;;;5068700;28;20195;-56
2023/05/01 07:44:44;;;;;;;2.40;2.20;;;;;;;;;;5065574;28;20568;-56
2023/05/01 07:47:10;;;;;;;2.50;2.30;;;;;;;;;;5068961;28;20179;-55
2023/05/01 07:49:40;;;;;;;2.73;2.37;;;;;;;;;;5067536;28;20260;-56
2023/05/01 07:52:06;;;;;;;2.27;1.83;;;;;;;;;;5068504;28;20652;-56
2023/05/01 07:54:33;;;;;;;2.63;2.43;;;;;;;;;;5065965;28;20184;-55
2023/05/01 07:57:00;;;;;;;4.40;2.60;;;;;;;;;;5069937;28;20192;-56
2023/05/01 07:59:26;;;;;;;5.03;2.20;;;;;;;;;;5069381;28;20543;-56
2023/05/01 08:01:52;;;;;;;2.70;2.30;;;;;;;;;;5064982;28;20188;-56
2023/05/01 08:04:21;;;;;;;2.73;2.30;;;;;;;;;;5066950;28;20220;-54
2023/05/01 08:06:47;;;;;;;2.43;2.23;;;;;;;;;;5066961;28;20659;-56
2023/05/01 08:09:14;;;;;;;2.00;1.90;;;;;;;;;;5066934;28;20554;-56
2023/05/01 08:11:40;;;;;;;2.90;2.13;;;;;;;;;;5067079;28;20203;-56
2023/05/01 08:14:06;;;;;;;2.30;2.10;;;;;;;;;;5067888;28;20654;-56
2023/05/01 08:16:33;;;;;;;3.37;2.57;;;;;;;;;;5068060;28;20210;-56
2023/05/01 08:18:59;;;;;;;3.13;2.20;;;;;;;;;;5067135;28;20295;-56
2023/05/01 08:21:25;;;;;;;2.40;2.20;;;;;;;;;;5067680;28;20295;-56
2023/05/01 08:23:51;;;;;;;2.60;2.40;;;;;;;;;;5065633;28;20246;-56
2023/05/01 08:26:17;;;;;;;2.47;2.27;;;;;;;;;;5068650;28;20248;-56
2023/05/01 08:28:43;;;;;;;2.63;2.30;;;;;;;;;;5069645;28;20176;-56
2023/05/01 08:31:09;;;;;;;2.37;2.17;;;;;;;;;;5069300;28;20177;-56
2023/05/01 08:33:36;;;;;;;2.33;2.00;;;;;;;;;;5060491;28;20180;-57
2023/05/01 08:36:02;;;;;;;2.10;2.00;;;;;;;;;;5067425;28;20184;-56
2023/05/01 08:38:30;;;;;;;2.40;2.23;;;;;;;;;;5050159;28;20259;-56
2023/05/01 08:40:58;;;;;;;3.63;2.80;;;;;;;;;;5069244;28;20176;-56
2023/05/01 08:43:25;;;;;;;2.20;2.00;;;;;;;;;;5069437;28;20547;-56
2023/05/01 08:45:52;;;;;;;2.40;2.20;;;;;;;;;;5067369;28;20587;-56
2023/05/01 08:48:19;;;;;;;2.83;2.13;;;;;;;;;;5064501;28;20604;-56
2023/05/01 08:50:46;;;;;;;3.50;2.30;;;;;;;;;;5068829;28;20184;-56
2023/05/01 08:53:14;;;;;;;2.50;2.30;;;;;;;;;;5068791;28;20208;-56
2023/05/01 08:55:44;;;;;;;2.60;2.40;;;;;;;;;;5068047;28;20193;-55
2023/05/01 08:58:12;;;;;;;2.83;2.40;;;;;;;;;;5066833;28;20290;-59
2023/05/01 09:00:39;;;;;;;2.93;2.10;;;;;;;;;;5066750;28;20637;-55
2023/05/01 09:03:06;;;;;;;3.73;2.37;;;;;;;;;;5061362;28;21928;-55
2023/05/01 09:05:33;;;;;;;2.33;2.13;;;;;;;;;;5065910;28;20619;-56
2023/05/01 09:08:00;;;;;;;2.37;2.17;;;;;;;;;;5066043;28;20268;-55
2023/05/01 09:10:26;;;;;;;2.97;2.57;;;;;;;;;;5065192;28;20192;-55
2023/05/01 09:12:57;;;;;;;2.30;2.10;;;;;;;;;;5067478;28;20207;-55
2023/05/01 09:15:25;;;;;;;2.33;2.13;;;;;;;;;;5062928;28;20199;-54
2023/05/01 09:17:51;;;;;;;4.17;2.17;;;;;;;;;;5063202;28;20185;-54
2023/05/01 09:20:18;;;;;;;3.90;2.60;;;;;;;;;;5058504;28;20185;-54
2023/05/01 09:22:45;;;;;;;2.63;2.17;;;;;;;;;;5061443;28;20192;-54
2023/05/01 09:25:11;;;;;;;2.70;2.17;;;;;;;;;;5062929;28;20224;-54
2023/05/01 09:27:37;;;;;;;3.53;2.60;;;;;;;;;;5060966;28;20188;-54
2023/05/01 09:30:06;;;;;;;3.47;2.80;;;;;;;;;;5059965;28;20179;-54
2023/05/01 09:32:32;;;;;;;2.70;2.30;;;;;;;;;;5059999;28;20187;-54
2023/05/01 09:35:16;;;;;;;3.80;2.30;;;;;;;;;;5061154;28;20363;-54
2023/05/01 09:37:43;;;;;;;3.53;2.57;;;;;;;;;;5054493;28;20229;-54
2023/05/01 09:40:14;;;;;;;3.60;2.40;;;;;;;;;;5060013;28;20213;-57
2023/05/01 09:42:40;;;;;;;2.40;2.20;;;;;;;;;;5057658;28;20181;-55
2023/05/01 09:45:13;;;;;;;3.03;2.73;;;;;;;;;;5062678;28;20203;-54
2023/05/01 09:47:39;;;;;;;3.57;2.73;;;;;;;;;;5055901;28;20183;-55
2023/05/01 09:50:05;;;;;;;3.70;2.50;;;;;;;;;;5062348;28;20181;-54
2023/05/01 09:52:32;;;;;;;2.47;2.27;;;;;;;;;;5060419;28;20174;-55
2023/05/01 09:55:17;;;;;;;4.37;3.00;;;;;;;;;;5060457;28;20263;-54
2023/05/01 09:57:44;;;;;;;2.83;2.50;;;;;;;;;;5062314;28;20548;-55
2023/05/01 10:00:11;;;;;;;5.50;2.80;;;;;;;;;;5058498;28;20226;-55
2023/05/01 10:02:37;;;;;;;9.10;2.40;;;;;;;;;;5061007;28;20212;-55
2023/05/01 10:05:04;;;;;;;3.93;3.53;;;;;;;;;;5059398;28;20264;-55
2023/05/01 10:07:30;;;;;;;4.00;2.63;;;;;;;;;;5059289;28;20193;-55
2023/05/01 10:09:57;;;;;;;3.53;2.80;;;;;;;;;;5063437;28;20212;-55
2023/05/01 10:12:27;;;;;;;2.80;2.60;;;;;;;;;;5059836;28;20205;-55
2023/05/01 10:14:54;;;;;;;3.53;2.70;;;;;;;;;;5063232;28;20643;-55
2023/05/01 10:17:21;;;;;;;3.03;2.50;;;;;;;;;;5053754;28;20683;-55
2023/05/01 10:19:47;;;;;;;3.07;2.77;;;;;;;;;;5059874;28;20187;-56
2023/05/01 10:22:13;;;;;;;3.37;2.60;;;;;;;;;;5059457;28;20177;-56
2023/05/01 10:24:40;;;;;;;3.40;2.80;;;;;;;;;;5061046;28;20235;-55
2023/05/01 10:27:07;;;;;;;2.93;2.73;;;;;;;;;;5067438;28;20708;-55
2023/05/01 10:29:37;;;;;;;3.40;2.90;;;;;;;;;;5064775;28;20215;-55
2023/05/01 10:32:06;;;;;;;3.10;2.53;;;;;;;;;;5068354;28;20191;-56
2023/05/01 10:34:33;;;;;;;2.60;2.40;;;;;;;;;;5055446;28;20200;-56
2023/05/01 10:37:06;;;;;;;5.73;3.03;;;;;;;;;;5067391;28;20226;-57
2023/05/01 10:39:33;;;;;;;2.83;2.63;;;;;;;;;;5065678;28;20668;-57
2023/05/01 10:42:02;;;;;;;2.63;2.43;;;;;;;;;;5065367;28;20216;-57
2023/05/01 10:44:28;;;;;;;5.30;2.57;;;;;;;;;;5063284;28;20234;-57
2023/05/01 10:46:55;;;;;;;2.50;2.30;;;;;;;;;;5064523;28;20179;-57
2023/05/01 10:49:21;;;;;;;3.30;3.00;;;;;;;;;;5061575;28;20185;-56
2023/05/01 10:52:02;;;;;;;5.47;3.10;;;;;;;;;;5064058;28;20697;-57
2023/05/01 10:54:30;;;;;;;4.00;2.73;;;;;;;;;;5061676;28;20188;-57
2023/05/01 10:57:00;;;;;;;3.00;2.63;;;;;;;;;;5067785;28;20200;-57
2023/05/01 10:59:27;;;;;;;3.10;2.47;;;;;;;;;;5060320;28;20188;-58
2023/05/01 11:01:54;;;;;;;2.60;2.40;;;;;;;;;;5061775;28;20192;-57
2023/05/01 11:04:26;;;;;;;3.63;2.90;;;;;;;;;;5065641;28;20200;-57
2023/05/01 11:06:58;;;;;;;3.67;3.10;;;;;;;;;;5066495;28;20180;-57
2023/05/01 11:09:38;;;;;;;3.73;3.10;;;;;;;;;;5061569;28;20184;-57
2023/05/01 11:12:05;;;;;;;4.77;3.50;;;;;;;;;;5063449;28;20200;-56
2023/05/01 11:14:50;;;;;;;3.93;3.13;;;;;;;;;;5071214;28;20255;-57
2023/05/01 11:17:36;;;;;;;3.73;3.40;;;;;;;;;;5062410;28;20521;-56
2023/05/01 11:20:02;;;;;;;3.57;2.97;;;;;;;;;;5067970;28;20180;-57
2023/05/01 11:22:29;;;;;;;3.40;3.13;;;;;;;;;;5066447;28;20185;-57
2023/05/01 11:24:56;;;;;;;3.83;2.77;;;;;;;;;;5065204;28;20236;-57
2023/05/01 11:27:22;;;;;;;2.90;2.70;;;;;;;;;;5067713;28;20279;-57
2023/05/01 11:29:49;;;;;;;2.93;2.63;;;;;;;;;;5068286;28;20173;-56
2023/05/01 11:32:23;;;;;;;3.10;2.90;;;;;;;;;;5068350;28;20176;-56
2023/05/01 11:34:50;;;;;;;3.20;2.90;;;;;;;;;;5068069;28;20544;-57
2023/05/01 11:37:17;;;;;;;4.13;3.47;;;;;;;;;;5064658;28;20192;-56
2023/05/01 11:39:51;;;;;;;3.77;2.97;;;;;;;;;;5064480;28;20660;-56
2023/05/01 11:42:20;;;;;;;3.73;3.43;;;;;;;;;;5063805;28;20189;-55
2023/05/01 11:45:05;;;;;;;4.10;3.73;;;;;;;;;;5067509;28;20560;-56
2023/05/01 11:47:34;;;;;;;4.60;3.87;;;;;;;;;;5065104;28;20638;-55
2023/05/01 11:50:00;;;;;;;4.90;3.90;;;;;;;;;;5064507;28;20215;-56
2023/05/01 11:52:27;;;;;;;4.97;3.50;;;;;;;;;;5069165;28;20180;-56
2023/05/01 11:54:53;;;;;;;4.37;3.07;;;;;;;;;;5067007;28;20187;-55
2023/05/01 11:57:19;;;;;;;4.00;3.50;;;;;;;;;;5063789;28;20183;-56
2023/05/01 11:59:49;;;;;;;6.30;4.77;;;;;;;;;;5067518;28;20269;-56
2023/05/01 12:02:19;;;;;;;3.93;3.53;;;;;;;;;;5066013;28;20187;-56
2023/05/01 12:04:45;;;;;;;3.67;3.00;;;;;;;;;;5066877;28;20301;-58
2023/05/01 12:07:24;;;;;;;3.43;2.60;;;;;;;;;;5068384;28;20172;-57
2023/05/01 12:09:50;;;;;;;3.10;2.60;;;;;;;;;;5067951;28;20205;-56
2023/05/01 12:12:17;;;;;;;4.00;3.00;;;;;;;;;;5068004;28;20218;-56
2023/05/01 12:14:43;;;;;;;6.57;2.67;;;;;;;;;;5069972;28;20199;-56
2023/05/01 12:17:10;;;;;;;2.30;2.20;;;;;;;;;;5069541;28;20541;-56
2023/05/01 12:19:47;;;;;;;2.40;2.10;;;;;;;;;;5065546;28;20179;-56
2023/05/01 12:22:13;;;;;;;3.53;3.23;;;;;;;;;;5065523;28;20646;-57
2023/05/01 12:24:48;;;;;;;3.83;2.90;;;;;;;;;;5056174;28;20246;-56
2023/05/01 12:27:15;;;;;;;3.37;2.30;;;;;;;;;;5063744;28;20530;-56
2023/05/01 12:29:45;;;;;;;2.73;2.30;;;;;;;;;;5065608;28;20187;-56
2023/05/01 12:32:12;;;;;;;2.50;2.30;;;;;;;;;;5065436;28;20181;-56
2023/05/01 12:34:40;;;;;;;3.00;2.00;;;;;;;;;;5047923;28;20720;-60
2023/05/01 12:37:06;;;;;;;3.03;2.57;;;;;;;;;;5065314;28;20401;-57
2023/05/01 12:39:41;;;;;;;3.10;2.80;;;;;;;;;;5066233;28;20682;-56
2023/05/01 12:42:13;;;;;;;4.67;4.27;;;;;;;;;;5066622;28;20645;-56
2023/05/01 12:44:40;;;;;;;4.10;3.70;;;;;;;;;;5065508;28;20591;-56
2023/05/01 12:47:07;;;;;;;4.27;3.40;;;;;;;;;;5062097;28;20182;-56
2023/05/01 12:49:36;;;;;;;4.17;3.70;;;;;;;;;;5065449;28;20178;-57
2023/05/01 12:52:04;;;;;;;3.93;2.70;;;;;;;;;;5061592;28;20181;-57
2023/05/01 12:54:32;;;;;;;3.40;2.80;;;;;;;;;;5062596;28;20532;-57
2023/05/01 12:57:13;;;;;;;2.97;2.70;;;;;;;;;;5065868;28;20181;-57
2023/05/01 12:59:40;;;;;;;3.90;2.53;;;;;;;;;;5065487;28;20190;-57
2023/05/01 13:02:07;;;;;;;3.43;2.90;;;;;;;;;;5059420;28;20262;-57
2023/05/01 13:04:33;;;;;;;4.17;2.40;;;;;;;;;;5066509;28;20205;-57
2023/05/01 13:07:00;;;;;;;3.33;2.57;;;;;;;;;;5069046;28;20169;-57
2023/05/01 13:09:29;;;;;;;2.90;2.20;;;;;;;;;;5066630;28;20188;-57
2023/05/01 13:12:06;;;;;;;2.70;2.50;;;;;;;;;;5067108;28;20211;-61
2023/05/01 13:14:39;;;;;;;2.53;2.33;;;;;;;;;;5067706;28;20192;-57
2023/05/01 13:17:06;;;;;;;2.60;2.40;;;;;;;;;;5068511;28;20201;-57
2023/05/01 13:19:33;;;;;;;2.40;2.23;;;;;;;;;;5059697;28;20190;-57
2023/05/01 13:21:59;;;;;;;3.57;2.30;;;;;;;;;;5069192;28;20527;-57
2023/05/01 13:24:38;;;;;;;2.40;2.20;;;;;;;;;;5066994;28;20550;-57
2023/05/01 13:27:05;;;;;;;1.70;1.60;;;;;;;;;;5067905;28;20243;-57
2023/05/01 13:29:32;;;;;;;2.13;2.03;;;;;;;;;;5066552;28;20190;-57
2023/05/01 13:31:58;;;;;;;2.13;2.03;;;;;;;;;;5063871;28;20172;-57
2023/05/01 13:34:26;;;;;;;2.13;1.90;;;;;;;;;;5066560;28;20413;-59
2023/05/01 13:36:53;;;;;;;2.67;2.20;;;;;;;;;;5068273;28;20197;-57
2023/05/01 13:39:19;;;;;;;2.20;2.10;;;;;;;;;;5067261;28;20177;-58
2023/05/01 13:41:45;;;;;;;2.97;2.13;;;;;;;;;;5066980;28;20726;-57
2023/05/01 13:44:12;;;;;;;2.10;2.00;;;;;;;;;;5068186;28;20212;-57
2023/05/01 13:46:41;;;;;;;2.17;2.03;;;;;;;;;;5065559;28;20176;-56
2023/05/01 13:49:07;;;;;;;1.73;1.63;;;;;;;;;;5061140;28;20337;-57
2023/05/01 13:51:36;;;;;;;2.30;2.07;;;;;;;;;;5067502;28;20543;-58
2023/05/01 13:54:03;;;;;;;7.57;2.23;;;;;;;;;;5066130;28;20574;-58
2023/05/01 13:56:31;;;;;;;2.00;1.90;;;;;;;;;;5066783;28;20184;-57
2023/05/01 13:58:59;;;;;;;2.30;2.10;;;;;;;;;;5067269;28;20208;-58
2023/05/01 14:01:25;;;;;;;2.47;2.33;;;;;;;;;;5060490;28;20181;-58
2023/05/01 14:03:53;;;;;;;2.00;1.90;;;;;;;;;;5059570;28;20181;-58
2023/05/01 14:06:20;;;;;;;1.73;1.63;;;;;;;;;;5067632;28;20244;-59
2023/05/01 14:08:47;;;;;;;4.90;3.00;;;;;;;;;;5066050;28;20198;-64
2023/05/01 14:11:14;;;;;;;8.13;2.97;;;;;;;;;;5066474;28;20585;-66
2023/05/01 14:13:40;;;;;;;8.53;3.30;;;;;;;;;;5065944;28;20674;-67
2023/05/01 14:16:10;;;;;;;6.17;3.30;;;;;;;;;;5067884;28;20583;-65
2023/05/01 14:18:46;;;;;;;4.23;3.07;;;;;;;;;;5041930;28;20181;-65
2023/05/01 14:21:17;;;;;;;6.20;4.13;;;;;;;;;;5052705;28;20202;-66
2023/05/01 14:23:44;;;;;;;6.00;3.90;;;;;;;;;;5059491;28;20637;-65
2023/05/01 14:26:10;;;;;;;5.37;4.07;;;;;;;;;;5066521;28;20286;-64
2023/05/01 14:28:43;;;;;;;10.37;4.80;;;;;;;;;;5066167;28;20188;-62
2023/05/01 14:31:14;;;;;;;7.87;4.03;;;;;;;;;;5062598;28;20177;-63
2023/05/01 14:33:46;;;;;;;5.93;4.23;;;;;;;;;;5065345;28;20192;-62
2023/05/01 14:36:13;;;;;;;4.90;4.40;;;;;;;;;;5064421;28;20170;-60
2023/05/01 14:38:40;;;;;;;7.33;4.67;;;;;;;;;;5066491;28;20178;-59
2023/05/01 14:41:06;;;;;;;5.80;5.10;;;;;;;;;;5068148;28;20189;-59
2023/05/01 14:43:33;;;;;;;5.50;5.00;;;;;;;;;;5067841;28;20182;-59
2023/05/01 14:45:59;;;;;;;6.13;5.23;;;;;;;;;;5063816;28;20201;-59